sensor_id;sensor_type;location;lat;lon;timestamp;pressure;altitude;pressure_sealevel;temperature;humidity
43503;BME280;29098;48.184;16.298;2023-03-15T00:02:12;98415.50;;;8.12;58.52
43503;BME280;29098;48.184;16.298;2023-03-15T00:04:37;98398.78;;;7.91;58.76
43503;BME280;29098;48.184;16.298;2023-03-15T00:07:03;98396.47;;;7.81;58.69
43503;BME280;29098;48.184;16.298;2023-03-15T00:09:28;98369.38;;;7.74;58.27
43503;BME280;29098;48.184;16.298;2023-03-15T00:11:54;98424.16;;;7.84;58.35
43503;BME280;29098;48.184;16.298;2023-03-15T00:14:20;98396.63;;;7.95;57.58
43503;BME280;29098;48.184;16.298;2023-03-15T00:16:45;98427.56;;;7.85;58.14
43503;BME280;29098;48.184;16.298;2023-03-15T00:19:12;98431.03;;;7.85;58.25
43503;BME280;29098;48.184;16.298;2023-03-15T00:21:38;98457.97;;;7.94;58.30
43503;BME280;29098;48.184;16.298;2023-03-15T00:24:05;98446.09;;;7.98;58.47
43503;BME280;29098;48.184;16.298;2023-03-15T00:26:30;98462.09;;;8.03;58.03
43503;BME280;29098;48.184;16.298;2023-03-15T00:28:56;98453.69;;;7.93;58.05
43503;BME280;29098;48.184;16.298;2023-03-15T00:31:24;98438.50;;;7.88;58.73
43503;BME280;29098;48.184;16.298;2023-03-15T00:33:51;98426.84;;;7.91;58.15
43503;BME280;29098;48.184;16.298;2023-03-15T00:36:20;98404.66;;;7.72;57.99
43503;BME280;29098;48.184;16.298;2023-03-15T00:38:51;98463.28;;;8.01;57.87
43503;BME280;29098;48.184;16.298;2023-03-15T00:41:18;98436.28;;;7.85;58.01
43503;BME280;29098;48.184;16.298;2023-03-15T00:43:45;98448.59;;;8.06;57.82
43503;BME280;29098;48.184;16.298;2023-03-15T00:46:11;98443.53;;;7.83;57.52
43503;BME280;29098;48.184;16.298;2023-03-15T00:48:37;98427.84;;;7.90;57.43
43503;BME280;29098;48.184;16.298;2023-03-15T00:51:08;98425.78;;;7.85;57.38
43503;BME280;29098;48.184;16.298;2023-03-15T00:53:36;98419.78;;;7.91;56.87
43503;BME280;29098;48.184;16.298;2023-03-15T00:56:12;98459.50;;;7.88;57.43
43503;BME280;29098;48.184;16.298;2023-03-15T00:58:38;98435.84;;;7.81;57.22
43503;BME280;29098;48.184;16.298;2023-03-15T01:01:09;98440.13;;;7.89;57.05
43503;BME280;29098;48.184;16.298;2023-03-15T01:03:35;98483.72;;;8.05;56.92
43503;BME280;29098;48.184;16.298;2023-03-15T01:06:06;98447.50;;;7.79;57.38
43503;BME280;29098;48.184;16.298;2023-03-15T01:08:32;98475.06;;;7.90;57.63
43503;BME280;29098;48.184;16.298;2023-03-15T01:11:12;98468.72;;;7.62;57.98
43503;BME280;29098;48.184;16.298;2023-03-15T01:13:38;98456.88;;;7.66;57.88
43503;BME280;29098;48.184;16.298;2023-03-15T01:16:04;98494.38;;;7.82;57.96
43503;BME280;29098;48.184;16.298;2023-03-15T01:18:30;98449.09;;;7.58;57.72
43503;BME280;29098;48.184;16.298;2023-03-15T01:20:56;98494.22;;;7.68;57.65
43503;BME280;29098;48.184;16.298;2023-03-15T01:23:22;98494.75;;;7.79;57.50
43503;BME280;29098;48.184;16.298;2023-03-15T01:25:48;98488.94;;;7.84;56.42
43503;BME280;29098;48.184;16.298;2023-03-15T01:28:13;98489.03;;;7.90;56.16
43503;BME280;29098;48.184;16.298;2023-03-15T01:30:39;98484.13;;;7.87;56.14
43503;BME280;29098;48.184;16.298;2023-03-15T01:33:05;98489.13;;;7.82;56.78
43503;BME280;29098;48.184;16.298;2023-03-15T01:35:30;98497.19;;;7.80;57.52
43503;BME280;29098;48.184;16.298;2023-03-15T01:37:56;98491.75;;;7.82;58.40
43503;BME280;29098;48.184;16.298;2023-03-15T01:40:21;98501.03;;;7.63;59.94
43503;BME280;29098;48.184;16.298;2023-03-15T01:45:56;98531.41;;;7.72;65.12
43503;BME280;29098;48.184;16.298;2023-03-15T01:48:26;98547.13;;;7.57;66.92
43503;BME280;29098;48.184;16.298;2023-03-15T01:50:52;98557.47;;;7.59;67.92
43503;BME280;29098;48.184;16.298;2023-03-15T01:53:21;98567.59;;;7.47;68.87
43503;BME280;29098;48.184;16.298;2023-03-15T01:55:47;98539.56;;;7.17;70.33
43503;BME280;29098;48.184;16.298;2023-03-15T01:58:13;98543.06;;;7.09;70.44
43503;BME280;29098;48.184;16.298;2023-03-15T02:00:39;98537.81;;;7.09;70.77
43503;BME280;29098;48.184;16.298;2023-03-15T02:03:15;98597.47;;;7.22;70.76
43503;BME280;29098;48.184;16.298;2023-03-15T02:05:45;98545.59;;;7.03;70.22
43503;BME280;29098;48.184;16.298;2023-03-15T02:08:12;98566.19;;;7.06;69.94
43503;BME280;29098;48.184;16.298;2023-03-15T02:10:45;98564.88;;;6.87;69.88
43503;BME280;29098;48.184;16.298;2023-03-15T02:13:17;98555.84;;;6.74;70.40
43503;BME280;29098;48.184;16.298;2023-03-15T02:15:43;98579.44;;;6.66;71.01
43503;BME280;29098;48.184;16.298;2023-03-15T02:18:15;98569.38;;;6.54;71.06
43503;BME280;29098;48.184;16.298;2023-03-15T02:23:36;98581.44;;;6.64;71.20
43503;BME280;29098;48.184;16.298;2023-03-15T02:26:23;98590.03;;;6.72;71.16
43503;BME280;29098;48.184;16.298;2023-03-15T02:28:51;98586.72;;;6.55;71.35
43503;BME280;29098;48.184;16.298;2023-03-15T02:31:19;98591.78;;;6.57;71.16
43503;BME280;29098;48.184;16.298;2023-03-15T02:33:48;98594.13;;;6.52;71.73
43503;BME280;29098;48.184;16.298;2023-03-15T02:36:25;98547.72;;;6.14;72.24
43503;BME280;29098;48.184;16.298;2023-03-15T02:38:52;98540.00;;;6.21;71.43
43503;BME280;29098;48.184;16.298;2023-03-15T02:41:26;98541.41;;;6.32;71.39
43503;BME280;29098;48.184;16.298;2023-03-15T02:43:59;98573.31;;;6.27;71.77
43503;BME280;29098;48.184;16.298;2023-03-15T02:46:27;98545.59;;;6.18;71.66
43503;BME280;29098;48.184;16.298;2023-03-15T02:48:53;98570.06;;;6.25;71.58
43503;BME280;29098;48.184;16.298;2023-03-15T02:51:22;98572.22;;;6.21;71.23
43503;BME280;29098;48.184;16.298;2023-03-15T02:53:47;98544.44;;;6.20;71.36
43503;BME280;29098;48.184;16.298;2023-03-15T02:56:13;98576.16;;;6.17;71.09
43503;BME280;29098;48.184;16.298;2023-03-15T02:58:40;98568.66;;;6.14;70.58
43503;BME280;29098;48.184;16.298;2023-03-15T03:01:05;98603.63;;;6.21;70.67
43503;BME280;29098;48.184;16.298;2023-03-15T03:03:35;98589.56;;;6.22;69.94
43503;BME280;29098;48.184;16.298;2023-03-15T03:06:04;98604.16;;;6.16;70.36
43503;BME280;29098;48.184;16.298;2023-03-15T03:08:29;98598.25;;;6.14;70.08
43503;BME280;29098;48.184;16.298;2023-03-15T03:10:55;98574.13;;;5.96;70.17
43503;BME280;29098;48.184;16.298;2023-03-15T03:13:20;98612.19;;;6.07;70.87
43503;BME280;29098;48.184;16.298;2023-03-15T03:15:48;98585.72;;;5.93;70.71
43503;BME280;29098;48.184;16.298;2023-03-15T03:18:14;98600.91;;;5.98;70.60
43503;BME280;29098;48.184;16.298;2023-03-15T03:20:39;98621.53;;;6.01;70.49
43503;BME280;29098;48.184;16.298;2023-03-15T03:23:05;98607.97;;;5.97;70.45
43503;BME280;29098;48.184;16.298;2023-03-15T03:25:31;98606.63;;;6.01;70.76
43503;BME280;29098;48.184;16.298;2023-03-15T03:27:58;98611.72;;;6.03;70.64
43503;BME280;29098;48.184;16.298;2023-03-15T03:30:24;98618.91;;;5.93;70.90
43503;BME280;29098;48.184;16.298;2023-03-15T03:32:49;98630.53;;;5.98;71.08
43503;BME280;29098;48.184;16.298;2023-03-15T03:35:15;98602.44;;;5.84;71.40
43503;BME280;29098;48.184;16.298;2023-03-15T03:37:40;98613.03;;;5.90;71.27
43503;BME280;29098;48.184;16.298;2023-03-15T03:40:07;98593.75;;;5.92;71.06
43503;BME280;29098;48.184;16.298;2023-03-15T03:42:34;98623.66;;;5.97;70.75
43503;BME280;29098;48.184;16.298;2023-03-15T03:44:59;98630.09;;;5.78;71.54
43503;BME280;29098;48.184;16.298;2023-03-15T03:47:25;98631.06;;;5.85;71.15
43503;BME280;29098;48.184;16.298;2023-03-15T03:49:50;98637.50;;;5.66;71.53
43503;BME280;29098;48.184;16.298;2023-03-15T03:52:16;98659.00;;;5.85;71.23
43503;BME280;29098;48.184;16.298;2023-03-15T03:54:42;98651.53;;;5.65;71.83
43503;BME280;29098;48.184;16.298;2023-03-15T03:57:08;98648.53;;;5.85;71.05
43503;BME280;29098;48.184;16.298;2023-03-15T03:59:33;98628.97;;;5.64;70.87
43503;BME280;29098;48.184;16.298;2023-03-15T04:01:59;98636.66;;;5.66;71.14
43503;BME280;29098;48.184;16.298;2023-03-15T04:04:25;98663.31;;;5.61;70.93
43503;BME280;29098;48.184;16.298;2023-03-15T04:06:50;98637.97;;;5.53;70.46
43503;BME280;29098;48.184;16.298;2023-03-15T04:09:16;98663.28;;;5.69;69.77
43503;BME280;29098;48.184;16.298;2023-03-15T04:11:42;98636.84;;;5.47;69.52
43503;BME280;29098;48.184;16.298;2023-03-15T04:14:12;98649.94;;;5.47;68.97
43503;BME280;29098;48.184;16.298;2023-03-15T04:16:38;98676.03;;;5.64;67.48
43503;BME280;29098;48.184;16.298;2023-03-15T04:19:04;98660.03;;;5.67;65.56
43503;BME280;29098;48.184;16.298;2023-03-15T04:21:29;98678.66;;;5.72;64.37
43503;BME280;29098;48.184;16.298;2023-03-15T04:23:58;98671.81;;;5.46;63.76
43503;BME280;29098;48.184;16.298;2023-03-15T04:26:25;98664.63;;;5.40;63.35
43503;BME280;29098;48.184;16.298;2023-03-15T04:28:55;98690.63;;;5.50;61.71
43503;BME280;29098;48.184;16.298;2023-03-15T04:31:22;98678.81;;;5.54;60.24
43503;BME280;29098;48.184;16.298;2023-03-15T04:33:52;98681.47;;;5.38;60.06
43503;BME280;29098;48.184;16.298;2023-03-15T04:36:21;98692.41;;;5.41;59.66
43503;BME280;29098;48.184;16.298;2023-03-15T04:38:48;98691.59;;;5.41;59.10
43503;BME280;29098;48.184;16.298;2023-03-15T04:41:15;98689.81;;;5.33;58.96
43503;BME280;29098;48.184;16.298;2023-03-15T04:43:42;98695.03;;;5.33;57.91
43503;BME280;29098;48.184;16.298;2023-03-15T04:46:08;98725.75;;;5.39;58.09
43503;BME280;29098;48.184;16.298;2023-03-15T04:48:34;98708.59;;;5.12;58.47
43503;BME280;29098;48.184;16.298;2023-03-15T04:51:00;98722.28;;;5.14;58.41
43503;BME280;29098;48.184;16.298;2023-03-15T04:53:25;98708.09;;;5.25;57.39
43503;BME280;29098;48.184;16.298;2023-03-15T04:55:51;98723.44;;;5.19;57.05
43503;BME280;29098;48.184;16.298;2023-03-15T04:58:17;98721.00;;;5.18;57.30
43503;BME280;29098;48.184;16.298;2023-03-15T05:00:42;98718.19;;;5.11;56.62
43503;BME280;29098;48.184;16.298;2023-03-15T05:03:08;98743.06;;;5.24;56.20
43503;BME280;29098;48.184;16.298;2023-03-15T05:05:34;98754.16;;;5.26;56.38
43503;BME280;29098;48.184;16.298;2023-03-15T05:07:59;98745.66;;;5.15;56.36
43503;BME280;29098;48.184;16.298;2023-03-15T05:10:25;98732.59;;;5.07;56.17
43503;BME280;29098;48.184;16.298;2023-03-15T05:12:54;98729.81;;;5.09;54.91
43503;BME280;29098;48.184;16.298;2023-03-15T05:15:19;98765.09;;;5.13;55.78
43503;BME280;29098;48.184;16.298;2023-03-15T05:17:45;98752.19;;;5.19;54.81
43503;BME280;29098;48.184;16.298;2023-03-15T05:20:12;98744.00;;;5.06;55.10
43503;BME280;29098;48.184;16.298;2023-03-15T05:22:39;98732.56;;;4.90;55.26
43503;BME280;29098;48.184;16.298;2023-03-15T05:25:05;98763.09;;;5.06;56.70
43503;BME280;29098;48.184;16.298;2023-03-15T05:27:31;98724.03;;;4.88;56.36
43503;BME280;29098;48.184;16.298;2023-03-15T05:29:59;98771.78;;;5.15;54.89
43503;BME280;29098;48.184;16.298;2023-03-15T05:32:27;98801.81;;;5.11;55.20
43503;BME280;29098;48.184;16.298;2023-03-15T05:34:53;98750.66;;;4.84;54.70
43503;BME280;29098;48.184;16.298;2023-03-15T05:37:21;98784.34;;;5.03;54.86
43503;BME280;29098;48.184;16.298;2023-03-15T05:39:47;98771.56;;;4.92;55.31
43503;BME280;29098;48.184;16.298;2023-03-15T05:42:13;98751.50;;;5.01;54.00
43503;BME280;29098;48.184;16.298;2023-03-15T05:44:39;98765.19;;;4.94;53.87
43503;BME280;29098;48.184;16.298;2023-03-15T05:47:05;98724.72;;;4.82;53.48
43503;BME280;29098;48.184;16.298;2023-03-15T05:49:30;98756.69;;;4.76;53.77
43503;BME280;29098;48.184;16.298;2023-03-15T05:51:56;98774.78;;;4.77;54.38
43503;BME280;29098;48.184;16.298;2023-03-15T05:54:21;98755.63;;;4.52;54.12
43503;BME280;29098;48.184;16.298;2023-03-15T05:56:47;98760.56;;;4.72;52.94
43503;BME280;29098;48.184;16.298;2023-03-15T05:59:12;98819.91;;;4.96;52.93
43503;BME280;29098;48.184;16.298;2023-03-15T06:01:38;98806.97;;;4.86;52.85
43503;BME280;29098;48.184;16.298;2023-03-15T06:04:03;98835.06;;;4.92;52.65
43503;BME280;29098;48.184;16.298;2023-03-15T06:06:29;98800.41;;;4.74;52.83
43503;BME280;29098;48.184;16.298;2023-03-15T06:08:55;98807.28;;;4.75;52.31
43503;BME280;29098;48.184;16.298;2023-03-15T06:11:20;98806.94;;;4.78;52.42
43503;BME280;29098;48.184;16.298;2023-03-15T06:13:46;98813.78;;;4.79;52.12
43503;BME280;29098;48.184;16.298;2023-03-15T06:16:11;98821.31;;;4.74;51.97
43503;BME280;29098;48.184;16.298;2023-03-15T06:18:38;98828.34;;;4.82;52.79
43503;BME280;29098;48.184;16.298;2023-03-15T06:21:03;98816.44;;;4.87;52.36
43503;BME280;29098;48.184;16.298;2023-03-15T06:23:29;98848.47;;;4.89;51.84
43503;BME280;29098;48.184;16.298;2023-03-15T06:25:55;98857.97;;;4.99;52.00
43503;BME280;29098;48.184;16.298;2023-03-15T06:28:20;98854.34;;;4.91;51.77
43503;BME280;29098;48.184;16.298;2023-03-15T06:30:46;98851.38;;;4.86;51.99
43503;BME280;29098;48.184;16.298;2023-03-15T06:33:11;98866.13;;;5.04;51.40
43503;BME280;29098;48.184;16.298;2023-03-15T06:35:37;98842.94;;;5.01;50.84
43503;BME280;29098;48.184;16.298;2023-03-15T06:38:02;98848.53;;;5.06;50.42
43503;BME280;29098;48.184;16.298;2023-03-15T06:40:29;98837.59;;;5.11;49.69
43503;BME280;29098;48.184;16.298;2023-03-15T06:42:54;98862.09;;;5.18;50.51
43503;BME280;29098;48.184;16.298;2023-03-15T06:45:20;98868.50;;;5.32;50.23
43503;BME280;29098;48.184;16.298;2023-03-15T06:47:45;98891.69;;;5.35;49.86
43503;BME280;29098;48.184;16.298;2023-03-15T06:50:11;98880.31;;;5.36;49.28
43503;BME280;29098;48.184;16.298;2023-03-15T06:52:37;98861.69;;;5.56;50.63
43503;BME280;29098;48.184;16.298;2023-03-15T06:55:03;98911.88;;;5.59;49.50
43503;BME280;29098;48.184;16.298;2023-03-15T06:57:29;98858.69;;;5.26;49.33
43503;BME280;29098;48.184;16.298;2023-03-15T06:59:55;98903.41;;;5.66;48.94
43503;BME280;29098;48.184;16.298;2023-03-15T07:02:21;98904.22;;;5.66;48.88
43503;BME280;29098;48.184;16.298;2023-03-15T07:04:46;98925.94;;;5.67;48.16
43503;BME280;29098;48.184;16.298;2023-03-15T07:07:13;98906.09;;;5.39;48.54
43503;BME280;29098;48.184;16.298;2023-03-15T07:09:39;98922.16;;;5.53;48.05
43503;BME280;29098;48.184;16.298;2023-03-15T07:12:06;98960.69;;;5.42;48.13
43503;BME280;29098;48.184;16.298;2023-03-15T07:14:33;98927.97;;;5.30;48.62
43503;BME280;29098;48.184;16.298;2023-03-15T07:16:59;98907.16;;;5.12;48.24
43503;BME280;29098;48.184;16.298;2023-03-15T07:19:24;98953.19;;;5.47;48.25
43503;BME280;29098;48.184;16.298;2023-03-15T07:21:50;98961.44;;;5.69;48.43
43503;BME280;29098;48.184;16.298;2023-03-15T07:24:16;98962.19;;;5.53;47.56
43503;BME280;29098;48.184;16.298;2023-03-15T07:26:42;98967.28;;;5.63;48.28
43503;BME280;29098;48.184;16.298;2023-03-15T07:29:08;98968.91;;;5.56;47.17
43503;BME280;29098;48.184;16.298;2023-03-15T07:31:33;98980.72;;;5.68;47.93
43503;BME280;29098;48.184;16.298;2023-03-15T07:33:59;99007.13;;;5.57;47.27
43503;BME280;29098;48.184;16.298;2023-03-15T07:36:24;99015.97;;;5.56;46.92
43503;BME280;29098;48.184;16.298;2023-03-15T07:38:50;99017.34;;;5.68;47.03
43503;BME280;29098;48.184;16.298;2023-03-15T07:41:15;99003.28;;;5.69;46.75
43503;BME280;29098;48.184;16.298;2023-03-15T07:43:41;98953.81;;;5.41;46.85
43503;BME280;29098;48.184;16.298;2023-03-15T07:46:06;98979.41;;;5.72;46.57
43503;BME280;29098;48.184;16.298;2023-03-15T07:48:32;98984.31;;;5.67;46.69
43503;BME280;29098;48.184;16.298;2023-03-15T07:50:58;98995.78;;;5.74;46.56
43503;BME280;29098;48.184;16.298;2023-03-15T07:53:24;98987.94;;;5.74;46.70
43503;BME280;29098;48.184;16.298;2023-03-15T07:55:49;98996.41;;;5.68;47.25
43503;BME280;29098;48.184;16.298;2023-03-15T07:58:15;98995.63;;;5.84;47.56
43503;BME280;29098;48.184;16.298;2023-03-15T08:00:40;98993.84;;;5.85;47.25
43503;BME280;29098;48.184;16.298;2023-03-15T08:03:06;98992.75;;;5.53;47.05
43503;BME280;29098;48.184;16.298;2023-03-15T08:05:33;99012.16;;;5.85;47.10
43503;BME280;29098;48.184;16.298;2023-03-15T08:07:59;99007.59;;;5.95;46.85
43503;BME280;29098;48.184;16.298;2023-03-15T08:10:25;99014.88;;;6.18;46.63
43503;BME280;29098;48.184;16.298;2023-03-15T08:12:51;99019.28;;;6.18;47.50
43503;BME280;29098;48.184;16.298;2023-03-15T08:15:18;99044.84;;;6.32;47.06
43503;BME280;29098;48.184;16.298;2023-03-15T08:17:46;99039.28;;;6.35;46.71
43503;BME280;29098;48.184;16.298;2023-03-15T08:20:11;99027.47;;;6.31;46.52
43503;BME280;29098;48.184;16.298;2023-03-15T08:22:39;99049.75;;;6.60;46.18
43503;BME280;29098;48.184;16.298;2023-03-15T08:25:10;99017.69;;;6.66;46.16
43503;BME280;29098;48.184;16.298;2023-03-15T08:27:37;99023.41;;;6.62;46.17
43503;BME280;29098;48.184;16.298;2023-03-15T08:30:03;99052.88;;;6.64;46.58
43503;BME280;29098;48.184;16.298;2023-03-15T08:32:30;99025.69;;;6.73;45.41
43503;BME280;29098;48.184;16.298;2023-03-15T08:34:56;99038.31;;;6.78;44.84
43503;BME280;29098;48.184;16.298;2023-03-15T08:37:22;99038.78;;;6.98;44.85
43503;BME280;29098;48.184;16.298;2023-03-15T08:39:48;99078.41;;;7.03;44.14
43503;BME280;29098;48.184;16.298;2023-03-15T08:42:14;99050.44;;;6.87;44.65
43503;BME280;29098;48.184;16.298;2023-03-15T08:44:39;99086.28;;;6.95;44.37
43503;BME280;29098;48.184;16.298;2023-03-15T08:47:05;99077.13;;;6.91;44.39
43503;BME280;29098;48.184;16.298;2023-03-15T08:49:31;99071.41;;;6.79;44.75
43503;BME280;29098;48.184;16.298;2023-03-15T08:51:56;99067.28;;;6.76;44.56
43503;BME280;29098;48.184;16.298;2023-03-15T08:54:22;99084.78;;;7.01;44.27
43503;BME280;29098;48.184;16.298;2023-03-15T08:56:48;99052.72;;;6.82;44.24
43503;BME280;29098;48.184;16.298;2023-03-15T08:59:13;99078.59;;;7.02;43.83
43503;BME280;29098;48.184;16.298;2023-03-15T09:01:39;99056.47;;;6.79;43.79
43503;BME280;29098;48.184;16.298;2023-03-15T09:04:05;99037.50;;;6.69;44.28
43503;BME280;29098;48.184;16.298;2023-03-15T09:06:30;99056.47;;;6.96;44.34
43503;BME280;29098;48.184;16.298;2023-03-15T09:08:56;99066.31;;;6.94;44.63
43503;BME280;29098;48.184;16.298;2023-03-15T09:11:22;99092.16;;;7.22;45.30
43503;BME280;29098;48.184;16.298;2023-03-15T09:13:48;99084.13;;;7.32;44.31
43503;BME280;29098;48.184;16.298;2023-03-15T09:16:14;99107.22;;;7.45;44.19
43503;BME280;29098;48.184;16.298;2023-03-15T09:18:40;99071.50;;;7.19;44.24
43503;BME280;29098;48.184;16.298;2023-03-15T09:21:08;99126.22;;;7.38;44.20
43503;BME280;29098;48.184;16.298;2023-03-15T09:23:33;99077.44;;;7.12;44.54
43503;BME280;29098;48.184;16.298;2023-03-15T09:25:59;99122.94;;;7.45;44.07
43503;BME280;29098;48.184;16.298;2023-03-15T09:28:24;99105.09;;;7.32;44.59
43503;BME280;29098;48.184;16.298;2023-03-15T09:30:51;99101.50;;;7.08;44.35
43503;BME280;29098;48.184;16.298;2023-03-15T09:33:17;99102.81;;;7.12;44.21
43503;BME280;29098;48.184;16.298;2023-03-15T09:35:42;99106.56;;;7.18;43.85
43503;BME280;29098;48.184;16.298;2023-03-15T09:38:08;99126.41;;;7.29;42.90
43503;BME280;29098;48.184;16.298;2023-03-15T09:40:42;99135.41;;;7.51;42.13
43503;BME280;29098;48.184;16.298;2023-03-15T09:43:33;99143.25;;;7.34;41.85
43503;BME280;29098;48.184;16.298;2023-03-15T09:46:39;99117.50;;;7.54;42.10
43503;BME280;29098;48.184;16.298;2023-03-15T09:49:23;99132.03;;;7.74;41.25
43503;BME280;29098;48.184;16.298;2023-03-15T09:51:59;99154.66;;;7.91;40.49
43503;BME280;29098;48.184;16.298;2023-03-15T09:55:02;99103.31;;;6.99;40.95
43503;BME280;29098;48.184;16.298;2023-03-15T09:57:41;99124.72;;;7.52;40.37
43503;BME280;29098;48.184;16.298;2023-03-15T10:00:12;99165.88;;;7.60;40.06
43503;BME280;29098;48.184;16.298;2023-03-15T10:02:46;99122.25;;;7.67;40.83
43503;BME280;29098;48.184;16.298;2023-03-15T10:05:19;99109.41;;;7.73;40.26
43503;BME280;29098;48.184;16.298;2023-03-15T10:07:46;99146.50;;;7.70;40.97
43503;BME280;29098;48.184;16.298;2023-03-15T10:10:25;99115.41;;;7.42;40.99
43503;BME280;29098;48.184;16.298;2023-03-15T10:13:12;99123.72;;;7.62;40.53
43503;BME280;29098;48.184;16.298;2023-03-15T10:16:01;99120.16;;;7.38;40.58
43503;BME280;29098;48.184;16.298;2023-03-15T10:21:42;99120.88;;;7.80;40.08
43503;BME280;29098;48.184;16.298;2023-03-15T10:24:24;99098.81;;;8.06;39.14
43503;BME280;29098;48.184;16.298;2023-03-15T10:26:52;99147.97;;;8.20;38.94
43503;BME280;29098;48.184;16.298;2023-03-15T10:29:20;99123.91;;;8.00;39.28
43503;BME280;29098;48.184;16.298;2023-03-15T10:31:47;99108.31;;;8.39;38.90
43503;BME280;29098;48.184;16.298;2023-03-15T10:34:14;99119.56;;;8.56;38.83
43503;BME280;29098;48.184;16.298;2023-03-15T10:36:45;99122.91;;;8.73;37.93
43503;BME280;29098;48.184;16.298;2023-03-15T10:39:11;99118.16;;;8.91;38.37
43503;BME280;29098;48.184;16.298;2023-03-15T10:41:42;99135.91;;;8.66;38.26
43503;BME280;29098;48.184;16.298;2023-03-15T10:44:15;99111.00;;;8.62;38.86
43503;BME280;29098;48.184;16.298;2023-03-15T10:46:58;99141.75;;;9.23;37.63
43503;BME280;29098;48.184;16.298;2023-03-15T10:49:32;99098.03;;;9.22;37.78
43503;BME280;29098;48.184;16.298;2023-03-15T10:51:58;99125.09;;;9.46;36.43
43503;BME280;29098;48.184;16.298;2023-03-15T10:54:24;99133.94;;;9.15;36.12
43503;BME280;29098;48.184;16.298;2023-03-15T10:57:10;99108.97;;;9.11;35.29
43503;BME280;29098;48.184;16.298;2023-03-15T10:59:57;99105.28;;;9.20;34.67
43503;BME280;29098;48.184;16.298;2023-03-15T11:02:24;99081.28;;;9.53;34.91
43503;BME280;29098;48.184;16.298;2023-03-15T11:05:17;99085.31;;;10.38;33.86
43503;BME280;29098;48.184;16.298;2023-03-15T11:07:54;99127.72;;;11.02;32.70
43503;BME280;29098;48.184;16.298;2023-03-15T11:10:25;99107.53;;;11.73;31.60
43503;BME280;29098;48.184;16.298;2023-03-15T11:13:23;99132.41;;;12.47;30.25
43503;BME280;29098;48.184;16.298;2023-03-15T11:15:58;99135.13;;;12.81;29.71
43503;BME280;29098;48.184;16.298;2023-03-15T11:21:01;99103.34;;;12.34;30.00
43503;BME280;29098;48.184;16.298;2023-03-15T11:23:34;99106.09;;;12.05;30.23
43503;BME280;29098;48.184;16.298;2023-03-15T11:26:01;99106.34;;;11.18;31.54
43503;BME280;29098;48.184;16.298;2023-03-15T11:28:29;99088.31;;;10.50;33.01
43503;BME280;29098;48.184;16.298;2023-03-15T11:30:59;99113.41;;;10.46;32.21
43503;BME280;29098;48.184;16.298;2023-03-15T11:35:55;99117.38;;;10.41;32.81
43503;BME280;29098;48.184;16.298;2023-03-15T11:38:30;99120.69;;;10.65;32.76
43503;BME280;29098;48.184;16.298;2023-03-15T11:41:04;99118.56;;;10.54;33.15
43503;BME280;29098;48.184;16.298;2023-03-15T11:43:48;99065.31;;;10.22;33.47
43503;BME280;29098;48.184;16.298;2023-03-15T11:46:24;99112.66;;;10.74;33.44
43503;BME280;29098;48.184;16.298;2023-03-15T11:49:02;99117.31;;;10.50;33.83
43503;BME280;29098;48.184;16.298;2023-03-15T11:51:34;99141.00;;;10.87;33.02
43503;BME280;29098;48.184;16.298;2023-03-15T11:54:10;99120.19;;;10.55;32.67
43503;BME280;29098;48.184;16.298;2023-03-15T11:59:14;99107.28;;;10.60;33.72
43503;BME280;29098;48.184;16.298;2023-03-15T12:01:54;99137.78;;;10.33;33.61
43503;BME280;29098;48.184;16.298;2023-03-15T12:06:50;99128.22;;;10.32;32.83
43503;BME280;29098;48.184;16.298;2023-03-15T12:12:03;99109.03;;;10.53;31.47
43503;BME280;29098;48.184;16.298;2023-03-15T12:14:31;99122.56;;;11.15;30.55
43503;BME280;29098;48.184;16.298;2023-03-15T12:19:58;99095.16;;;11.45;31.74
43503;BME280;29098;48.184;16.298;2023-03-15T12:22:30;99113.22;;;11.41;30.49
43503;BME280;29098;48.184;16.298;2023-03-15T12:24:59;99111.38;;;11.70;30.89
43503;BME280;29098;48.184;16.298;2023-03-15T12:27:29;99092.31;;;11.82;29.42
43503;BME280;29098;48.184;16.298;2023-03-15T12:30:00;99100.34;;;12.02;30.60
43503;BME280;29098;48.184;16.298;2023-03-15T12:32:28;99088.19;;;12.08;31.80
43503;BME280;29098;48.184;16.298;2023-03-15T12:35:07;99119.28;;;11.70;29.96
43503;BME280;29098;48.184;16.298;2023-03-15T12:53:15;99100.63;;;15.25;24.83
43503;BME280;29098;48.184;16.298;2023-03-15T12:55:42;99098.38;;;14.38;24.92
43503;BME280;29098;48.184;16.298;2023-03-15T12:58:12;99068.00;;;13.23;27.08
43503;BME280;29098;48.184;16.298;2023-03-15T13:00:42;99066.97;;;13.10;27.14
43503;BME280;29098;48.184;16.298;2023-03-15T13:03:14;99079.81;;;13.13;26.45
43503;BME280;29098;48.184;16.298;2023-03-15T13:06:02;99070.66;;;12.82;28.11
43503;BME280;29098;48.184;16.298;2023-03-15T13:08:36;99087.50;;;13.35;26.84
43503;BME280;29098;48.184;16.298;2023-03-15T13:11:34;99097.69;;;13.32;26.86
43503;BME280;29098;48.184;16.298;2023-03-15T13:17:20;99100.53;;;12.90;27.65
43503;BME280;29098;48.184;16.298;2023-03-15T13:20:00;99107.88;;;12.74;27.81
43503;BME280;29098;48.184;16.298;2023-03-15T13:22:49;99061.81;;;12.21;27.89
43503;BME280;29098;48.184;16.298;2023-03-15T13:28:10;99071.72;;;11.00;29.85
43503;BME280;29098;48.184;16.298;2023-03-15T13:30:54;99073.06;;;10.67;30.69
43503;BME280;29098;48.184;16.298;2023-03-15T13:33:27;99101.06;;;10.31;30.75
43503;BME280;29098;48.184;16.298;2023-03-15T13:36:10;99097.50;;;10.39;30.09
43503;BME280;29098;48.184;16.298;2023-03-15T13:41:05;99070.84;;;10.92;29.01
43503;BME280;29098;48.184;16.298;2023-03-15T13:43:33;99064.28;;;11.10;28.23
43503;BME280;29098;48.184;16.298;2023-03-15T13:46:00;99076.59;;;11.67;28.05
43503;BME280;29098;48.184;16.298;2023-03-15T13:48:33;99095.53;;;12.12;27.30
43503;BME280;29098;48.184;16.298;2023-03-15T13:53:30;99097.81;;;12.22;29.76
43503;BME280;29098;48.184;16.298;2023-03-15T13:55:57;99075.34;;;13.93;29.81
43503;BME280;29098;48.184;16.298;2023-03-15T13:58:23;99105.44;;;13.33;31.30